Time;durP1;ratioP1;P1;durP2;ratioP2;P2;SDS_P1;SDS_P2;PMS_P1;PMS_P2;Temp;Humidity;BMP_temperature;BMP_pressure;BME280_temperature;BME280_humidity;BME280_pressure;Samples;Min_cycle;Max_cycle;Signal;HPM_P1;HPM_P2
2022/01/03 00:01:40;;;;;;;4.03;1.63;;;12.60;99.90;;;;;;5015951;28;20555;-91
2022/01/03 00:04:07;;;;;;;2.90;2.03;;;12.60;99.90;;;;;;5020328;28;20470;-91
2022/01/03 00:06:35;;;;;;;5.70;2.70;;;12.50;99.90;;;;;;5020603;28;20462;-91
2022/01/03 00:09:03;;;;;;;2.63;1.73;;;12.50;99.90;;;;;;5020212;28;20457;-91
2022/01/03 00:11:49;;;;;;;4.70;2.50;;;12.50;99.90;;;;;;5017876;28;20478;-92
2022/01/03 00:14:18;;;;;;;5.70;2.00;;;12.60;99.90;;;;;;5022183;28;20458;-91
2022/01/03 00:16:45;;;;;;;4.20;1.57;;;12.50;99.90;;;;;;5027624;28;20442;-93
2022/01/03 00:19:12;;;;;;;2.30;1.37;;;12.80;99.60;;;;;;5019812;28;20457;-93
2022/01/03 00:21:44;;;;;;;5.00;1.97;;;12.90;99.40;;;;;;5011485;28;20535;-93
2022/01/03 00:24:12;;;;;;;3.70;1.63;;;12.80;99.40;;;;;;5021895;28;20525;-90
2022/01/03 00:26:40;;;;;;;5.07;1.77;;;12.90;99.00;;;;;;5019129;28;20485;-91
2022/01/03 00:29:12;;;;;;;4.30;2.17;;;13.00;98.60;;;;;;5022147;28;20464;-91
2022/01/03 00:31:42;;;;;;;7.47;2.10;;;13.10;98.60;;;;;;5021955;28;21064;-91
2022/01/03 00:34:11;;;;;;;3.33;1.63;;;13.10;98.30;;;;;;5019117;28;20461;-91
2022/01/03 00:36:38;;;;;;;3.43;1.70;;;13.00;98.40;;;;;;5005279;28;20527;-93
2022/01/03 00:39:09;;;;;;;2.27;1.40;;;13.00;98.30;;;;;;4997868;28;20438;-91
2022/01/03 00:41:39;;;;;;;3.07;1.60;;;13.00;98.30;;;;;;4997867;28;20482;-91
2022/01/03 00:44:06;;;;;;;4.10;1.77;;;13.10;98.00;;;;;;5000699;28;20514;-91
2022/01/03 00:46:34;;;;;;;5.33;1.70;;;13.20;97.70;;;;;;5016448;28;20458;-91
2022/01/03 00:49:03;;;;;;;5.63;1.73;;;13.20;97.40;;;;;;5040136;28;20515;-94
2022/01/03 00:51:31;;;;;;;4.07;1.63;;;13.20;97.50;;;;;;5027611;28;20480;-92
2022/01/03 00:53:58;;;;;;;3.83;1.97;;;13.10;97.60;;;;;;5011958;28;20439;-91
2022/01/03 00:56:29;;;;;;;4.10;1.90;;;13.20;97.40;;;;;;5006581;28;20460;-91
2022/01/03 00:59:04;;;;;;;6.10;1.70;;;13.20;97.10;;;;;;5021040;28;20458;-91
2022/01/03 01:01:35;;;;;;;3.20;1.57;;;13.20;97.10;;;;;;5001994;28;20521;-91
2022/01/03 01:04:22;;;;;;;4.33;1.57;;;13.20;96.90;;;;;;5014598;28;20488;-91
2022/01/03 01:06:52;;;;;;;3.93;1.60;;;13.20;96.90;;;;;;5016762;28;20537;-91
2022/01/03 01:09:20;;;;;;;4.73;1.43;;;13.20;97.10;;;;;;5020567;28;20447;-92
2022/01/03 01:11:48;;;;;;;2.20;1.70;;;13.10;97.10;;;;;;5004971;28;20479;-93
2022/01/03 01:14:15;;;;;;;3.20;1.37;;;13.10;97.30;;;;;;5017466;28;20448;-91
2022/01/03 01:16:43;;;;;;;2.87;1.60;;;13.10;97.10;;;;;;5024838;28;20514;-91
2022/01/03 01:19:10;;;;;;;3.43;1.93;;;13.10;97.10;;;;;;5040616;28;20455;-91
2022/01/03 01:21:39;;;;;;;2.37;1.70;;;13.10;97.10;;;;;;5040310;28;20478;-92
2022/01/03 01:24:07;;;;;;;3.10;1.40;;;13.10;97.10;;;;;;5034979;28;20523;-92
2022/01/03 01:29:18;;;;;;;2.87;1.53;;;13.20;97.00;;;;;;5011137;28;20468;-91
2022/01/03 01:31:47;;;;;;;3.20;1.80;;;13.20;97.10;;;;;;5003363;28;20454;-90
2022/01/03 01:34:17;;;;;;;3.93;1.80;;;13.10;97.10;;;;;;5015882;28;20448;-91
2022/01/03 01:36:47;;;;;;;3.27;1.70;;;13.10;97.00;;;;;;5019844;28;20449;-91
2022/01/03 01:39:17;;;;;;;2.60;1.50;;;13.10;97.30;;;;;;5004362;28;20459;-91
2022/01/03 01:41:46;;;;;;;5.60;2.33;;;13.00;97.30;;;;;;5005243;28;20477;-91
2022/01/03 01:44:14;;;;;;;4.00;1.70;;;12.90;97.40;;;;;;5022161;28;20550;-90
2022/01/03 01:46:46;;;;;;;3.47;1.47;;;13.00;97.40;;;;;;5026926;28;20504;-94
2022/01/03 01:49:17;;;;;;;4.23;2.10;;;13.00;97.30;;;;;;5039563;28;20456;-91
2022/01/03 01:51:47;;;;;;;4.70;2.00;;;13.00;97.40;;;;;;5033891;28;20470;-91
2022/01/03 01:54:16;;;;;;;5.17;2.03;;;13.00;97.50;;;;;;5010434;28;20462;-92
2022/01/03 01:56:55;;;;;;;4.63;1.93;;;13.00;97.40;;;;;;5002133;28;20453;-90
2022/01/03 01:59:29;;;;;;;3.47;1.77;;;13.00;97.60;;;;;;5010363;28;20437;-91
2022/01/03 02:02:03;;;;;;;3.80;1.43;;;13.10;97.50;;;;;;5018629;28;20480;-91
2022/01/03 02:04:39;;;;;;;2.87;1.53;;;13.00;97.70;;;;;;5010144;28;20477;-91
2022/01/03 02:07:35;;;;;;;5.90;1.80;;;13.00;97.80;;;;;;5008859;28;20478;-91
2022/01/03 02:10:08;;;;;;;3.10;2.13;;;13.00;97.90;;;;;;5036420;28;20464;-93
2022/01/03 02:12:41;;;;;;;5.23;1.80;;;13.00;97.90;;;;;;5024100;28;20459;-91
2022/01/03 02:15:11;;;;;;;3.37;1.73;;;13.00;97.80;;;;;;5020658;28;20499;-91
2022/01/03 02:17:39;;;;;;;6.13;2.63;;;13.00;97.90;;;;;;5010956;28;21116;-91
2022/01/03 02:20:12;;;;;;;4.80;1.50;;;13.00;97.90;;;;;;4999861;28;20452;-92
2022/01/03 02:22:41;;;;;;;4.83;1.93;;;13.00;98.10;;;;;;5004289;28;20478;-92
2022/01/03 02:25:09;;;;;;;5.20;1.50;;;13.00;98.00;;;;;;5018801;28;20482;-91
2022/01/03 02:27:37;;;;;;;6.40;2.27;;;13.00;98.00;;;;;;5019806;28;20458;-91
2022/01/03 02:30:06;;;;;;;5.53;2.23;;;13.00;98.00;;;;;;5018553;28;20437;-91
2022/01/03 02:32:33;;;;;;;3.40;1.73;;;13.00;98.10;;;;;;5032836;28;20492;-92
2022/01/03 02:35:00;;;;;;;2.23;1.67;;;13.00;98.30;;;;;;5027724;28;20542;-90
2022/01/03 02:37:32;;;;;;;3.83;1.70;;;12.90;98.40;;;;;;5022823;28;20452;-91
2022/01/03 02:39:59;;;;;;;4.23;1.73;;;12.90;98.70;;;;;;5019110;28;20952;-92
2022/01/03 02:42:26;;;;;;;4.27;2.43;;;12.80;98.80;;;;;;5004267;28;20549;-90
2022/01/03 02:45:02;;;;;;;4.03;1.70;;;12.90;98.80;;;;;;5003245;28;20564;-90
2022/01/03 02:47:29;;;;;;;7.73;2.30;;;12.80;98.90;;;;;;5014229;28;20460;-92
2022/01/03 02:49:56;;;;;;;3.60;1.40;;;12.80;98.90;;;;;;5015633;28;20456;-90
2022/01/03 02:52:23;;;;;;;4.90;1.90;;;12.80;98.80;;;;;;5019100;28;20463;-94
2022/01/03 02:54:53;;;;;;;3.43;1.70;;;12.80;98.80;;;;;;5005201;28;20473;-91
2022/01/03 02:57:23;;;;;;;6.67;2.20;;;12.80;98.80;;;;;;4999720;28;20590;-91
2022/01/03 02:59:54;;;;;;;7.50;2.30;;;12.80;98.80;;;;;;5002707;28;20511;-92
2022/01/03 03:02:23;;;;;;;2.60;1.40;;;12.80;98.90;;;;;;5008343;28;20472;-91
2022/01/03 03:04:55;;;;;;;5.20;1.83;;;12.80;99.00;;;;;;5022845;28;20477;-92
2022/01/03 03:07:23;;;;;;;4.70;1.57;;;12.70;98.80;;;;;;5020277;28;20533;-92
2022/01/03 03:09:52;;;;;;;5.87;2.93;;;12.80;98.90;;;;;;5018835;28;20455;-92
2022/01/03 03:12:19;;;;;;;8.37;2.00;;;12.70;98.80;;;;;;5009691;28;21013;-92
2022/01/03 03:14:47;;;;;;;4.80;1.97;;;12.70;98.80;;;;;;4999192;28;20445;-92
2022/01/03 03:17:14;;;;;;;6.03;2.03;;;12.60;98.90;;;;;;5004293;28;20456;-91
2022/01/03 03:19:53;;;;;;;4.67;2.47;;;12.60;98.90;;;;;;5029496;28;20440;-92
2022/01/03 03:22:20;;;;;;;4.43;1.70;;;12.60;99.00;;;;;;5025696;28;20482;-91
2022/01/03 03:25:27;;;;;;;6.70;1.60;;;12.50;99.00;;;;;;5022166;28;20482;-91
2022/01/03 03:27:57;;;;;;;4.10;1.43;;;12.60;99.00;;;;;;5018113;28;20460;-92
2022/01/03 03:30:27;;;;;;;5.50;1.60;;;12.50;99.50;;;;;;5022163;28;20463;-92
2022/01/03 03:32:55;;;;;;;4.23;1.83;;;12.50;99.10;;;;;;5035051;28;20431;-94
2022/01/03 03:35:23;;;;;;;3.40;1.80;;;12.40;99.10;;;;;;5038612;28;20463;-95
2022/01/03 03:37:50;;;;;;;4.53;1.87;;;12.30;99.20;;;;;;5017954;28;20507;-94
2022/01/03 03:40:17;;;;;;;3.50;1.60;;;12.30;99.30;;;;;;5015483;28;20492;-93
2022/01/03 03:42:47;;;;;;;4.60;1.60;;;12.20;99.50;;;;;;5021412;28;20510;-93
2022/01/03 03:45:14;;;;;;;7.00;1.80;;;12.20;99.50;;;;;;5027940;28;20473;-92
2022/01/03 03:47:41;;;;;;;3.80;1.50;;;12.20;99.30;;;;;;5020966;28;20826;-92
2022/01/03 03:50:09;;;;;;;4.20;2.43;;;12.10;99.40;;;;;;5020708;28;20460;-92
2022/01/03 03:52:36;;;;;;;4.17;1.97;;;12.20;99.30;;;;;;5018503;28;20472;-91
2022/01/03 03:55:04;;;;;;;9.00;2.60;;;12.20;99.20;;;;;;5018269;28;20451;-92
2022/01/03 03:57:31;;;;;;;4.00;1.50;;;12.10;99.30;;;;;;5018929;28;20541;-92
2022/01/03 04:00:00;;;;;;;3.40;1.80;;;12.00;99.20;;;;;;5020186;28;20831;-91
2022/01/03 04:02:27;;;;;;;3.03;1.50;;;12.00;99.30;;;;;;5006951;28;20524;-92
2022/01/03 04:04:54;;;;;;;6.00;1.40;;;12.00;99.20;;;;;;4999895;28;21050;-92
2022/01/03 04:07:21;;;;;;;2.97;1.33;;;11.90;99.10;;;;;;4999384;28;20465;-91
2022/01/03 04:09:48;;;;;;;6.23;2.00;;;12.10;98.70;;;;;;4998516;28;20460;-91
2022/01/03 04:12:15;;;;;;;3.60;1.23;;;12.10;98.50;;;;;;5011768;28;20480;-91
2022/01/03 04:14:42;;;;;;;2.70;1.40;;;12.00;98.50;;;;;;5029770;28;20442;-92
2022/01/03 04:17:12;;;;;;;9.37;2.03;;;12.00;98.50;;;;;;5019905;28;20480;-93
2022/01/03 04:19:39;;;;;;;6.37;1.97;;;12.10;98.10;;;;;;5002565;28;20476;-92
2022/01/03 04:22:06;;;;;;;6.23;1.70;;;12.00;98.10;;;;;;5013612;28;20566;-92
2022/01/03 04:24:33;;;;;;;5.13;1.97;;;12.00;98.00;;;;;;5023414;28;20481;-91
2022/01/03 04:26:59;;;;;;;5.17;1.57;;;12.10;97.70;;;;;;5014619;28;20514;-92
2022/01/03 04:29:27;;;;;;;2.70;1.70;;;12.10;97.50;;;;;;5022790;28;20438;-95
2022/01/03 04:31:54;;;;;;;3.20;2.00;;;12.10;97.40;;;;;;5021927;28;20473;-94
2022/01/03 04:34:22;;;;;;;3.93;2.10;;;12.00;97.50;;;;;;5021096;28;20439;-92
2022/01/03 04:36:49;;;;;;;6.80;1.47;;;12.00;97.70;;;;;;5021758;28;20439;-95
2022/01/03 04:39:17;;;;;;;3.87;1.50;;;12.00;97.60;;;;;;5016751;28;20439;-94
2022/01/03 04:41:43;;;;;;;5.20;1.70;;;12.10;97.50;;;;;;5026763;28;20881;-92
2022/01/03 04:44:10;;;;;;;4.80;1.67;;;12.10;97.60;;;;;;5028874;28;20462;-92
2022/01/03 04:46:39;;;;;;;5.17;2.07;;;12.20;97.60;;;;;;5026734;28;20450;-92
2022/01/03 04:49:08;;;;;;;5.50;1.73;;;12.30;97.70;;;;;;5040879;28;20493;-92
2022/01/03 04:51:37;;;;;;;6.50;1.57;;;12.30;98.50;;;;;;5040311;28;20491;-93
2022/01/03 04:54:04;;;;;;;4.63;1.83;;;12.20;99.10;;;;;;5033913;28;20439;-92
2022/01/03 04:56:33;;;;;;;3.50;1.80;;;12.10;99.60;;;;;;5039915;28;20459;-92
2022/01/03 04:59:01;;;;;;;9.90;1.77;;;12.10;99.90;;;;;;5023248;28;20459;-92
2022/01/03 05:01:28;;;;;;;4.43;2.10;;;12.00;99.90;;;;;;5016244;28;20471;-92
2022/01/03 05:03:55;;;;;;;9.07;2.03;;;11.90;99.90;;;;;;5002159;28;20460;-92
2022/01/03 05:06:22;;;;;;;5.00;1.90;;;11.90;99.90;;;;;;5005320;28;20475;-91
2022/01/03 05:08:51;;;;;;;7.03;2.17;;;11.70;99.90;;;;;;5021074;28;20531;-91
2022/01/03 05:11:18;;;;;;;5.23;2.13;;;11.60;99.90;;;;;;5015831;28;20541;-91
2022/01/03 05:13:45;;;;;;;3.00;1.17;;;11.40;99.90;;;;;;5000629;28;20455;-91
2022/01/03 05:16:12;;;;;;;5.50;1.67;;;11.30;99.90;;;;;;5000892;28;21253;-91
2022/01/03 05:18:39;;;;;;;4.80;1.90;;;11.10;99.90;;;;;;5000697;28;20451;-91
2022/01/03 05:21:06;;;;;;;1.97;1.30;;;11.00;99.90;;;;;;5015891;23;20538;-85
2022/01/03 05:23:33;;;;;;;5.73;1.80;;;10.90;99.90;;;;;;5001658;28;20455;-87
2022/01/03 05:26:01;;;;;;;2.70;1.40;;;10.80;99.90;;;;;;5014647;28;20489;-86
2022/01/03 05:28:28;;;;;;;3.63;1.40;;;10.70;99.90;;;;;;5005134;28;20458;-87
2022/01/03 05:30:54;;;;;;;8.97;3.10;;;10.60;99.90;;;;;;5007659;28;20951;-87
2022/01/03 05:33:21;;;;;;;3.80;1.80;;;10.60;99.90;;;;;;5018291;28;20451;-86
2022/01/03 05:35:48;;;;;;;2.60;2.17;;;10.60;99.90;;;;;;5014782;28;20502;-87
2022/01/03 05:38:15;;;;;;;6.43;2.03;;;10.60;99.90;;;;;;5012410;28;20453;-87
2022/01/03 05:40:42;;;;;;;6.50;2.40;;;10.60;99.90;;;;;;5006319;28;20489;-85
2022/01/03 05:43:11;;;;;;;3.77;2.10;;;10.60;99.90;;;;;;5002573;28;20464;-85
2022/01/03 05:45:38;;;;;;;9.13;2.10;;;10.60;99.90;;;;;;5003398;28;20524;-86
2022/01/03 05:48:05;;;;;;;16.23;2.87;;;10.60;99.90;;;;;;5013301;28;20449;-86
2022/01/03 05:50:32;;;;;;;8.30;2.10;;;10.50;99.90;;;;;;5002008;28;20443;-87
2022/01/03 05:52:58;;;;;;;4.47;2.60;;;10.50;99.90;;;;;;5003903;28;20463;-85
2022/01/03 05:55:25;;;;;;;5.23;2.17;;;10.40;99.90;;;;;;5006222;28;20449;-87
2022/01/03 05:57:52;;;;;;;6.93;2.10;;;10.40;99.90;;;;;;5012340;28;20451;-88
2022/01/03 06:00:22;;;;;;;6.07;2.40;;;10.40;99.90;;;;;;5005306;28;20979;-86
2022/01/03 06:02:54;;;;;;;9.27;3.13;;;10.40;99.90;;;;;;5002862;28;20478;-86
2022/01/03 06:05:33;;;;;;;6.97;2.27;;;10.50;99.90;;;;;;5003642;28;20479;-87
2022/01/03 06:08:00;;;;;;;7.13;1.60;;;10.50;99.90;;;;;;5000939;28;20483;-87
2022/01/03 06:10:27;;;;;;;8.23;3.13;;;10.50;99.90;;;;;;5001441;28;20486;-86
2022/01/03 06:12:53;;;;;;;4.93;1.90;;;10.50;99.90;;;;;;5006610;28;20474;-86
2022/01/03 06:15:24;;;;;;;11.17;2.37;;;10.50;99.90;;;;;;5017760;28;20454;-87
2022/01/03 06:17:51;;;;;;;8.70;1.57;;;10.50;99.90;;;;;;5014284;28;20461;-86
2022/01/03 06:20:18;;;;;;;5.83;3.20;;;10.60;99.90;;;;;;5008651;28;20447;-86
2022/01/03 06:22:45;;;;;;;4.43;2.07;;;10.60;99.90;;;;;;5005586;28;20505;-87
2022/01/03 06:25:12;;;;;;;8.93;3.40;;;10.50;99.90;;;;;;5005560;28;20489;-87
2022/01/03 06:27:40;;;;;;;12.30;3.30;;;10.50;99.90;;;;;;5007363;28;20519;-87
2022/01/03 06:30:08;;;;;;;4.17;2.50;;;10.50;99.90;;;;;;5015327;28;20454;-85
2022/01/03 06:32:37;;;;;;;13.73;2.77;;;10.60;99.90;;;;;;5009454;28;20473;-86
2022/01/03 06:35:05;;;;;;;5.30;2.13;;;10.60;99.90;;;;;;5011361;28;20443;-84
2022/01/03 06:37:32;;;;;;;5.50;2.20;;;10.60;99.90;;;;;;5015160;28;20542;-85
2022/01/03 06:39:58;;;;;;;5.90;2.70;;;10.60;99.90;;;;;;5006738;28;20515;-85
2022/01/03 06:42:25;;;;;;;5.37;2.53;;;10.50;99.90;;;;;;5012091;28;20463;-84
2022/01/03 06:44:52;;;;;;;7.73;3.30;;;10.50;99.90;;;;;;5012363;28;20520;-84
2022/01/03 06:47:19;;;;;;;7.83;3.13;;;10.60;99.90;;;;;;5014776;28;20454;-84
2022/01/03 06:49:47;;;;;;;5.27;2.63;;;10.50;99.90;;;;;;5014033;28;20439;-86
2022/01/03 06:52:15;;;;;;;10.93;3.93;;;10.60;99.90;;;;;;5006425;28;20474;-85
2022/01/03 06:54:41;;;;;;;5.33;2.60;;;10.60;99.90;;;;;;5010453;28;20443;-86
2022/01/03 06:57:09;;;;;;;5.87;2.70;;;10.60;99.90;;;;;;5003892;28;21171;-85
2022/01/03 06:59:36;;;;;;;9.13;2.60;;;10.50;99.90;;;;;;5002573;28;21030;-85
2022/01/03 07:02:03;;;;;;;8.47;3.33;;;10.50;99.90;;;;;;5002971;28;20998;-83
2022/01/03 07:04:30;;;;;;;7.70;2.60;;;10.40;99.90;;;;;;5005362;28;20446;-85
2022/01/03 07:06:58;;;;;;;7.83;2.97;;;10.40;99.90;;;;;;5005648;28;20482;-83
2022/01/03 07:09:25;;;;;;;10.97;2.70;;;10.40;99.90;;;;;;5007273;28;20447;-82
2022/01/03 07:11:52;;;;;;;6.20;3.40;;;10.40;99.90;;;;;;5003828;28;20471;-85
2022/01/03 07:19:53;;;;;;;10.93;4.00;;;10.30;99.90;;;;;;5005584;28;20923;-84
2022/01/03 07:22:21;;;;;;;3.77;2.57;;;10.30;99.90;;;;;;5007783;28;20481;-84
2022/01/03 07:24:48;;;;;;;8.43;2.67;;;10.30;99.90;;;;;;5009112;28;20461;-84
2022/01/03 07:27:15;;;;;;;11.57;3.30;;;10.30;99.90;;;;;;5007647;28;20487;-85
2022/01/03 07:29:43;;;;;;;8.93;3.20;;;10.40;99.90;;;;;;5008483;28;20446;-84
2022/01/03 07:32:09;;;;;;;10.70;4.17;;;10.30;99.90;;;;;;5011215;28;20473;-83
2022/01/03 07:34:36;;;;;;;14.10;2.90;;;10.20;99.90;;;;;;5018598;28;20456;-82
2022/01/03 07:37:03;;;;;;;6.90;3.40;;;10.20;99.90;;;;;;5011543;28;20458;-83
2022/01/03 07:39:31;;;;;;;10.10;3.50;;;10.20;99.90;;;;;;4998177;28;20451;-82
2022/01/03 07:41:58;;;;;;;8.13;3.87;;;10.20;99.90;;;;;;4997693;28;20471;-82
2022/01/03 07:44:25;;;;;;;10.77;3.27;;;10.20;99.90;;;;;;4997247;28;20498;-83
2022/01/03 07:46:54;;;;;;;8.00;3.67;;;10.20;99.90;;;;;;4996207;28;20481;-80
2022/01/03 07:49:20;;;;;;;7.10;2.83;;;10.20;99.90;;;;;;4997288;28;20504;-83
2022/01/03 07:51:47;;;;;;;9.57;3.70;;;10.20;99.90;;;;;;5001302;28;20535;-83
2022/01/03 07:54:14;;;;;;;7.20;4.50;;;10.20;99.90;;;;;;5008656;28;20462;-81
2022/01/03 07:56:42;;;;;;;6.70;3.90;;;10.20;99.90;;;;;;5001241;28;20451;-84
2022/01/03 07:59:08;;;;;;;9.87;3.60;;;10.30;99.90;;;;;;4999448;28;20933;-86
2022/01/03 08:01:35;;;;;;;13.27;4.27;;;10.30;99.90;;;;;;5002939;28;20610;-86
2022/01/03 08:04:02;;;;;;;10.97;4.57;;;10.30;99.90;;;;;;5004137;28;20451;-85
2022/01/03 08:06:29;;;;;;;6.50;3.20;;;10.40;99.90;;;;;;4998788;28;20582;-84
2022/01/03 08:08:56;;;;;;;14.83;3.30;;;10.30;99.90;;;;;;5015397;28;20521;-82
2022/01/03 08:11:22;;;;;;;10.10;4.07;;;10.30;99.90;;;;;;5013655;28;20506;-83
2022/01/03 08:13:50;;;;;;;7.90;3.47;;;10.30;99.90;;;;;;5007065;28;20495;-85
2022/01/03 08:16:17;;;;;;;9.87;5.00;;;10.30;99.90;;;;;;5001391;28;20441;-85
2022/01/03 08:18:44;;;;;;;7.77;3.47;;;10.30;99.90;;;;;;4999439;28;20478;-84
2022/01/03 08:21:10;;;;;;;14.77;5.07;;;10.30;99.90;;;;;;5001114;28;20470;-83
2022/01/03 08:23:37;;;;;;;4.43;3.27;;;10.30;99.90;;;;;;5007115;28;20443;-84
2022/01/03 08:26:04;;;;;;;7.37;3.77;;;10.30;99.90;;;;;;5003824;28;20471;-83
2022/01/03 08:28:30;;;;;;;8.30;3.37;;;10.40;99.90;;;;;;5002545;28;20443;-83
2022/01/03 08:30:58;;;;;;;10.23;4.23;;;10.40;99.90;;;;;;5003882;28;20959;-84
2022/01/03 08:33:25;;;;;;;7.40;3.67;;;10.50;99.90;;;;;;5002243;28;20866;-85
2022/01/03 08:35:52;;;;;;;8.50;4.27;;;10.60;99.90;;;;;;5002332;28;20457;-82
2022/01/03 08:38:19;;;;;;;11.77;4.20;;;10.60;99.90;;;;;;5001586;28;20451;-83
2022/01/03 08:40:46;;;;;;;10.60;4.40;;;10.70;99.90;;;;;;4999060;28;20449;-84
2022/01/03 08:43:13;;;;;;;11.37;3.90;;;10.80;99.90;;;;;;4998341;28;20443;-84
2022/01/03 08:45:40;;;;;;;5.83;3.60;;;10.90;99.90;;;;;;4999276;28;20451;-84
2022/01/03 08:48:08;;;;;;;5.47;3.40;;;10.90;99.90;;;;;;4999954;28;20455;-84
2022/01/03 08:50:34;;;;;;;8.63;3.40;;;10.90;99.90;;;;;;4998741;28;20862;-85
2022/01/03 08:53:04;;;;;;;9.43;3.60;;;10.90;99.90;;;;;;4995960;28;20483;-85
2022/01/03 08:55:31;;;;;;;8.07;3.53;;;11.00;99.90;;;;;;4998703;28;20447;-84
2022/01/03 08:57:58;;;;;;;15.20;3.90;;;11.10;99.90;;;;;;4999010;28;20454;-84
2022/01/03 09:00:25;;;;;;;9.43;4.00;;;11.20;99.90;;;;;;4998403;28;20454;-85
2022/01/03 09:02:52;;;;;;;7.47;3.70;;;11.30;99.90;;;;;;4998223;28;20502;-84
2022/01/03 09:05:20;;;;;;;10.87;3.60;;;11.30;99.90;;;;;;5002530;28;20866;-85
2022/01/03 09:07:47;;;;;;;9.67;3.40;;;11.40;99.90;;;;;;5001822;28;20864;-85
2022/01/03 09:10:13;;;;;;;7.20;4.40;;;11.40;99.90;;;;;;5002346;28;20452;-84
2022/01/03 09:12:40;;;;;;;8.43;3.00;;;11.50;99.90;;;;;;5002688;28;20469;-85
2022/01/03 09:15:08;;;;;;;7.43;3.70;;;11.60;99.90;;;;;;5001900;28;20466;-86
2022/01/03 09:17:34;;;;;;;12.17;4.67;;;11.70;99.90;;;;;;5001618;28;20440;-84
2022/01/03 09:20:01;;;;;;;7.30;5.13;;;11.90;99.90;;;;;;5002285;28;20459;-86
2022/01/03 09:22:35;;;;;;;9.87;4.37;;;11.90;99.90;;;;;;5001658;28;20487;-84
2022/01/03 09:30:31;;;;;;;9.70;4.10;;;12.00;99.90;;;;;;5010447;28;20471;-84
2022/01/03 09:32:58;;;;;;;12.03;4.43;;;12.10;99.90;;;;;;5013019;28;20484;-84
2022/01/03 09:35:25;;;;;;;6.20;3.83;;;12.10;99.90;;;;;;5008390;28;20976;-86
2022/01/03 09:37:53;;;;;;;12.27;4.53;;;12.00;99.90;;;;;;5003018;28;20449;-86
2022/01/03 09:40:20;;;;;;;9.00;3.87;;;12.00;99.90;;;;;;5004240;28;20444;-85
2022/01/03 09:42:51;;;;;;;10.70;4.23;;;12.10;99.90;;;;;;5003955;28;20471;-84
2022/01/03 09:45:19;;;;;;;11.20;4.33;;;12.10;99.90;;;;;;5005268;28;20451;-86
2022/01/03 09:47:47;;;;;;;8.20;4.00;;;12.10;99.90;;;;;;5003411;28;20518;-85
2022/01/03 09:50:17;;;;;;;10.47;3.50;;;12.10;99.90;;;;;;5004233;28;20882;-85
2022/01/03 09:52:47;;;;;;;9.60;3.73;;;12.10;99.90;;;;;;5003544;28;20495;-83
2022/01/03 09:55:16;;;;;;;16.07;4.10;;;12.00;99.90;;;;;;5013093;28;20507;-83
2022/01/03 09:57:45;;;;;;;12.23;6.10;;;12.00;99.90;;;;;;5009355;28;20444;-84
2022/01/03 10:00:13;;;;;;;9.93;3.47;;;12.00;99.90;;;;;;5001752;28;20493;-85
2022/01/03 10:02:40;;;;;;;8.80;4.23;;;11.90;99.90;;;;;;5002899;28;20840;-86
2022/01/03 10:05:08;;;;;;;12.37;3.70;;;12.00;99.90;;;;;;5007139;28;20448;-84
2022/01/03 10:07:35;;;;;;;7.87;3.60;;;12.00;99.90;;;;;;5007567;28;20480;-85
2022/01/03 10:10:02;;;;;;;9.10;2.90;;;12.10;99.90;;;;;;5004968;28;20468;-85
2022/01/03 10:12:30;;;;;;;14.93;3.60;;;12.10;99.90;;;;;;5002995;28;20569;-84
2022/01/03 10:14:58;;;;;;;5.97;3.20;;;12.20;99.90;;;;;;5001482;28;20451;-86
2022/01/03 10:17:25;;;;;;;5.03;2.87;;;12.30;99.90;;;;;;5001226;28;20452;-86
2022/01/03 10:19:54;;;;;;;9.03;4.60;;;12.30;99.90;;;;;;5000349;28;20454;-84
2022/01/03 10:22:24;;;;;;;7.90;3.67;;;12.30;99.90;;;;;;5007796;28;20483;-84
2022/01/03 10:24:51;;;;;;;6.73;2.57;;;12.30;99.90;;;;;;5010617;28;20447;-87
2022/01/03 10:27:18;;;;;;;3.33;2.10;;;12.30;99.90;;;;;;5009673;28;20480;-85
2022/01/03 10:29:55;;;;;;;10.20;3.67;;;12.30;99.90;;;;;;5005233;28;20451;-84
2022/01/03 10:32:27;;;;;;;6.03;2.57;;;12.30;99.90;;;;;;5001671;28;20511;-86
2022/01/03 10:34:54;;;;;;;7.50;2.33;;;12.40;99.90;;;;;;5002395;28;20455;-86
2022/01/03 10:37:35;;;;;;;4.97;1.90;;;12.40;99.90;;;;;;5001668;28;20453;-84
2022/01/03 10:40:17;;;;;;;4.53;2.10;;;12.40;99.90;;;;;;5002151;28;20451;-85
2022/01/03 10:42:44;;;;;;;3.43;2.10;;;12.40;99.90;;;;;;5001871;28;20473;-85
2022/01/03 10:45:12;;;;;;;4.37;2.07;;;12.40;99.90;;;;;;5001597;28;20798;-86
2022/01/03 10:47:41;;;;;;;3.97;1.90;;;12.40;99.90;;;;;;5001528;28;20536;-85
2022/01/03 10:50:15;;;;;;;6.33;2.80;;;12.40;99.90;;;;;;5000959;28;20454;-83
2022/01/03 10:52:42;;;;;;;3.33;1.93;;;12.50;99.90;;;;;;5000931;28;20982;-84
2022/01/03 10:55:12;;;;;;;4.17;1.67;;;12.50;99.90;;;;;;5001245;28;20451;-85
2022/01/03 10:57:53;;;;;;;7.73;2.60;;;12.50;99.90;;;;;;5001410;28;20447;-85
2022/01/03 11:00:24;;;;;;;4.93;1.33;;;12.60;99.90;;;;;;5001880;28;20453;-86
2022/01/03 11:03:16;;;;;;;4.80;1.90;;;12.70;99.90;;;;;;5001419;28;20490;-84
2022/01/03 11:05:48;;;;;;;6.47;2.23;;;12.70;99.90;;;;;;5007464;28;20453;-83
2022/01/03 11:11:00;;;;;;;5.97;2.50;;;12.80;99.90;;;;;;5002845;28;20446;-85
2022/01/03 11:13:27;;;;;;;6.80;2.10;;;12.80;99.90;;;;;;5003008;28;20455;-85
2022/01/03 11:15:57;;;;;;;5.93;2.13;;;12.90;99.90;;;;;;5002565;28;20447;-87
2022/01/03 11:18:25;;;;;;;9.80;2.23;;;13.00;99.90;;;;;;5001170;28;20464;-87
2022/01/03 11:21:04;;;;;;;5.20;2.50;;;13.00;99.90;;;;;;5001271;28;20452;-85
2022/01/03 11:23:32;;;;;;;5.97;2.30;;;13.00;99.90;;;;;;5113360;23;20498;-90
2022/01/03 11:26:06;;;;;;;8.43;1.70;;;13.10;99.90;;;;;;5026505;28;20455;-92
2022/01/03 11:28:34;;;;;;;7.93;2.00;;;13.10;99.90;;;;;;5029646;28;20644;-91
2022/01/03 11:31:03;;;;;;;4.80;1.70;;;13.20;99.90;;;;;;5025100;28;20448;-93
2022/01/03 11:33:31;;;;;;;4.70;2.83;;;13.20;99.90;;;;;;5024789;28;20557;-91
2022/01/03 11:36:01;;;;;;;6.87;2.40;;;13.20;99.90;;;;;;5023185;28;20451;-92
2022/01/03 11:38:30;;;;;;;4.20;1.70;;;13.30;99.90;;;;;;5024336;28;20483;-91
2022/01/03 11:41:00;;;;;;;3.90;1.73;;;13.40;99.90;;;;;;5020709;28;20456;-91
2022/01/03 11:43:28;;;;;;;3.57;1.30;;;13.40;99.90;;;;;;5020732;28;20499;-91
2022/01/03 11:45:56;;;;;;;6.10;2.10;;;13.40;99.90;;;;;;5022998;28;20456;-91
2022/01/03 11:48:28;;;;;;;3.50;1.50;;;13.50;99.90;;;;;;5025319;28;20486;-93
2022/01/03 11:50:57;;;;;;;8.30;2.43;;;13.60;99.90;;;;;;5024199;28;20449;-91
2022/01/03 11:53:25;;;;;;;4.90;1.70;;;13.70;99.90;;;;;;5027328;28;20473;-89
2022/01/03 11:55:54;;;;;;;6.40;1.57;;;13.70;99.90;;;;;;5036858;28;20463;-94
2022/01/03 11:58:50;;;;;;;7.30;2.20;;;13.60;99.30;;;;;;5034096;28;20464;-92
2022/01/03 12:04:13;;;;;;;4.93;1.67;;;13.50;99.50;;;;;;5027090;28;20989;-90
2022/01/03 12:06:41;;;;;;;3.20;1.30;;;13.50;99.50;;;;;;5030047;28;20485;-91
2022/01/03 12:09:10;;;;;;;2.37;1.20;;;13.50;98.70;;;;;;5031522;28;20826;-91
2022/01/03 12:11:44;;;;;;;6.20;1.97;;;13.50;98.50;;;;;;5026389;28;20449;-91
2022/01/03 12:14:14;;;;;;;6.07;1.97;;;13.50;97.90;;;;;;5018262;28;20980;-91
2022/01/03 12:16:49;;;;;;;4.63;2.20;;;13.50;97.80;;;;;;5022956;28;20453;-91
2022/01/03 12:19:33;;;;;;;2.43;2.00;;;13.60;97.90;;;;;;5021217;28;20449;-91
2022/01/03 12:22:06;;;;;;;7.93;1.70;;;13.60;97.50;;;;;;5017938;28;20459;-91
2022/01/03 12:25:00;;;;;;;4.97;1.50;;;13.70;97.10;;;;;;5029710;28;20460;-92
2022/01/03 12:27:36;;;;;;;7.00;2.30;;;13.70;96.40;;;;;;5035742;28;20477;-90
2022/01/03 12:30:20;;;;;;;15.00;7.47;;;13.70;95.90;;;;;;5032975;28;20491;-92
2022/01/03 12:33:19;;;;;;;7.30;2.63;;;13.80;96.10;;;;;;5029831;28;20479;-91
2022/01/03 12:35:49;;;;;;;2.83;1.50;;;13.80;95.80;;;;;;5000758;28;21013;-91
2022/01/03 12:38:30;;;;;;;2.23;1.70;;;13.80;95.20;;;;;;5001588;28;20785;-91
2022/01/03 12:40:59;;;;;;;10.00;4.17;;;13.70;95.50;;;;;;5008163;28;20454;-91
2022/01/03 12:43:47;;;;;;;3.53;2.33;;;13.60;95.80;;;;;;5010931;28;20524;-90
2022/01/03 12:46:24;;;;;;;2.60;1.40;;;13.60;96.50;;;;;;5027509;28;20448;-91
2022/01/03 12:48:54;;;;;;;2.43;1.70;;;13.60;96.40;;;;;;5027196;28;20547;-90
2022/01/03 12:51:34;;;;;;;3.63;1.30;;;13.60;96.30;;;;;;5036840;28;20429;-92
2022/01/03 12:54:07;;;;;;;4.90;1.87;;;13.60;96.20;;;;;;5035440;28;20539;-91
2022/01/03 12:56:34;;;;;;;7.97;3.33;;;13.50;96.50;;;;;;5026341;28;20459;-91
2022/01/03 12:59:12;;;;;;;5.27;1.80;;;13.50;96.50;;;;;;5026274;28;20945;-90
2022/01/03 13:01:39;;;;;;;3.60;2.13;;;13.50;96.50;;;;;;5040240;28;20450;-93
2022/01/03 13:07:23;;;;;;;4.03;1.87;;;13.50;96.90;;;;;;5147440;23;20498;-89
2022/01/03 13:09:51;;;;;;;2.90;1.57;;;13.50;97.50;;;;;;5035545;28;20448;-91
2022/01/03 13:12:18;;;;;;;9.47;1.60;;;13.50;96.70;;;;;;5140919;23;20503;-92
2022/01/03 13:14:58;;;;;;;3.63;2.07;;;13.40;96.80;;;;;;5028592;28;20478;-92
2022/01/03 13:17:26;;;;;;;6.50;1.87;;;13.40;96.90;;;;;;5024365;28;20456;-91
2022/01/03 13:20:00;;;;;;;4.33;1.70;;;13.40;97.20;;;;;;5011931;28;20439;-90